Time;durP1;ratioP1;P1;durP2;ratioP2;P2;SDS_P1;SDS_P2;PMS_P1;PMS_P2;Temp;Humidity;BMP_temperature;BMP_pressure;BME280_temperature;BME280_humidity;BME280_pressure;Samples;Min_cycle;Max_cycle;Signal;HPM_P1;HPM_P2
2023/10/10 00:01:44;;;;;;;27.52;11.63;;;;;;;9.92;100.00;94600.00;5017380;28;20048;-63
2023/10/10 00:04:11;;;;;;;23.60;10.43;;;;;;;9.86;100.00;94600.78;5028136;28;20045;-62
2023/10/10 00:06:38;;;;;;;18.38;6.97;;;;;;;9.85;100.00;94607.47;5024340;28;20049;-62
2023/10/10 00:09:10;;;;;;;15.77;6.03;;;;;;;9.84;100.00;94598.47;5029394;28;20037;-62
2023/10/10 00:11:46;;;;;;;15.15;5.50;;;;;;;9.85;100.00;94601.97;5028453;28;20106;-62
2023/10/10 00:14:19;;;;;;;13.02;5.32;;;;;;;9.77;100.00;94593.75;5029397;28;20714;-63
2023/10/10 00:16:48;;;;;;;13.48;5.30;;;;;;;9.77;100.00;94591.00;5027337;28;20474;-62
2023/10/10 00:19:18;;;;;;;16.40;5.78;;;;;;;9.77;100.00;94587.50;5029221;28;20053;-62
2023/10/10 00:21:50;;;;;;;14.40;5.20;;;;;;;9.69;100.00;94591.41;5028008;28;20041;-63
2023/10/10 00:24:20;;;;;;;13.30;5.20;;;;;;;9.69;100.00;94596.91;5028940;28;20073;-62
2023/10/10 00:26:50;;;;;;;13.98;5.00;;;;;;;9.67;100.00;94591.03;5028424;28;20043;-63
2023/10/10 00:29:25;;;;;;;13.98;5.00;;;;;;;9.67;100.00;94593.78;5020393;28;20045;-62
2023/10/10 00:31:56;;;;;;;15.00;5.22;;;;;;;9.63;100.00;94593.78;5015669;28;20099;-63
2023/10/10 00:34:33;;;;;;;18.27;8.67;;;;;;;9.59;100.00;94596.50;5029277;28;20045;-62
2023/10/10 00:37:08;;;;;;;15.88;6.82;;;;;;;9.56;100.00;94591.81;5017114;28;20039;-62
2023/10/10 00:39:36;;;;;;;15.52;6.07;;;;;;;9.54;100.00;94609.84;5028882;28;20678;-62
2023/10/10 00:42:08;;;;;;;14.57;5.75;;;;;;;9.50;100.00;94607.09;5018690;28;20057;-62
2023/10/10 00:44:37;;;;;;;16.02;5.97;;;;;;;9.47;100.00;94596.13;5028368;28;20041;-63
2023/10/10 00:47:12;;;;;;;16.57;5.87;;;;;;;9.46;100.00;94603.56;5019439;28;20071;-62
2023/10/10 00:49:43;;;;;;;15.00;5.32;;;;;;;9.44;100.00;94603.19;5029492;28;20033;-62
2023/10/10 00:52:15;;;;;;;15.75;5.13;;;;;;;9.42;100.00;94588.28;5022113;28;20041;-62
2023/10/10 00:54:45;;;;;;;12.57;5.35;;;;;;;9.43;100.00;94593.38;5029093;28;20409;-63
2023/10/10 00:57:16;;;;;;;14.23;5.15;;;;;;;9.32;100.00;94600.84;5023444;28;20053;-62
2023/10/10 00:59:48;;;;;;;20.77;9.13;;;;;;;9.32;100.00;94592.63;5022091;28;20041;-63
2023/10/10 01:02:20;;;;;;;22.17;10.30;;;;;;;9.28;100.00;94580.88;5024642;28;20052;-62
2023/10/10 01:04:49;;;;;;;20.55;7.32;;;;;;;9.22;100.00;94591.44;5026572;28;20057;-62
2023/10/10 01:07:21;;;;;;;17.10;5.28;;;;;;;9.14;100.00;94581.66;5028506;28;20386;-62
2023/10/10 01:09:55;;;;;;;16.35;5.45;;;;;;;9.13;100.00;94580.06;5018997;28;20044;-63
2023/10/10 01:12:28;;;;;;;20.17;5.20;;;;;;;9.13;100.00;94574.59;5014070;28;20053;-62
2023/10/10 01:14:57;;;;;;;16.17;5.50;;;;;;;9.11;100.00;94572.22;5029048;28;20437;-64
2023/10/10 01:17:29;;;;;;;13.00;5.40;;;;;;;9.11;100.00;94574.97;5015023;28;20038;-63
2023/10/10 01:20:19;;;;;;;17.92;5.75;;;;;;;9.12;100.00;94578.50;5029229;28;20041;-62
2023/10/10 01:22:48;;;;;;;14.02;5.63;;;;;;;9.10;100.00;94575.38;5019272;28;20362;-63
2023/10/10 01:25:42;;;;;;;13.20;5.67;;;;;;;9.10;100.00;94578.91;5028358;28;20060;-62
2023/10/10 01:28:15;;;;;;;15.27;5.55;;;;;;;9.06;100.00;94583.59;5019352;28;20061;-62
2023/10/10 01:33:35;;;;;;;14.38;5.53;;;;;;;8.98;100.00;94573.81;5022071;28;20067;-63
2023/10/10 01:36:11;;;;;;;15.48;5.45;;;;;;;8.93;100.00;94569.50;5023551;28;20065;-62
2023/10/10 01:38:44;;;;;;;18.43;5.93;;;;;;;8.94;100.00;94562.84;5025544;28;20049;-62
2023/10/10 01:41:30;;;;;;;15.88;5.57;;;;;;;8.86;100.00;94571.44;5023968;28;20050;-62
2023/10/10 01:44:10;;;;;;;15.75;5.70;;;;;;;8.88;100.00;94569.09;5016216;28;20494;-63
2023/10/10 01:46:40;;;;;;;16.50;5.57;;;;;;;8.78;100.00;94568.69;5022729;28;20651;-62
2023/10/10 01:49:15;;;;;;;12.07;4.80;;;;;;;8.71;100.00;94563.19;5027981;28;20045;-62
2023/10/10 01:51:43;;;;;;;12.77;4.80;;;;;;;8.69;100.00;94565.53;5024435;28;20639;-62
2023/10/10 01:54:23;;;;;;;14.77;5.72;;;;;;;8.69;100.00;94564.75;5027868;28;20042;-63
2023/10/10 01:56:54;;;;;;;18.92;6.20;;;;;;;8.64;100.00;94557.69;5015081;28;20033;-63
2023/10/10 01:59:25;;;;;;;16.55;6.78;;;;;;;8.63;100.00;94556.13;5020677;28;20048;-63
2023/10/10 02:01:53;;;;;;;19.48;6.80;;;;;;;8.60;100.00;94551.44;5027448;28;20111;-63
2023/10/10 02:04:27;;;;;;;15.60;5.70;;;;;;;8.57;100.00;94563.16;5027332;28;20045;-62
2023/10/10 02:06:57;;;;;;;14.30;5.40;;;;;;;8.47;100.00;94559.22;5019462;28;20052;-63
2023/10/10 02:11:54;;;;;;;17.08;5.32;;;;;;;8.44;100.00;94548.28;5020243;28;20038;-63
2023/10/10 02:14:30;;;;;;;13.65;4.68;;;;;;;8.38;100.00;94545.09;5025150;28;20433;-62
2023/10/10 02:17:06;;;;;;;16.20;5.37;;;;;;;8.35;100.00;94552.13;5019655;28;20046;-62
2023/10/10 02:19:39;;;;;;;15.25;5.15;;;;;;;8.30;100.00;94555.22;5014974;28;21745;-62
2023/10/10 02:22:22;;;;;;;15.30;5.50;;;;;;;8.27;100.00;94552.47;5018925;28;20108;-62
2023/10/10 02:25:08;;;;;;;16.63;5.75;;;;;;;8.28;100.00;94557.56;5028152;28;20041;-63
2023/10/10 02:27:47;;;;;;;13.80;5.55;;;;;;;8.22;100.00;94548.16;5020518;28;20417;-63
2023/10/10 02:30:21;;;;;;;13.67;5.23;;;;;;;8.12;100.00;94554.38;5014547;28;20050;-62
2023/10/10 02:32:48;;;;;;;16.48;5.57;;;;;;;8.12;100.00;94555.16;5022997;28;20110;-63
2023/10/10 02:35:16;;;;;;;12.50;5.30;;;;;;;8.13;100.00;94558.66;5027646;28;20041;-62
2023/10/10 02:37:45;;;;;;;15.88;5.47;;;;;;;8.14;100.00;94555.53;5022962;28;20038;-63
2023/10/10 02:40:15;;;;;;;13.95;4.60;;;;;;;8.09;100.00;94553.19;5027352;28;20091;-62
2023/10/10 02:42:49;;;;;;;12.20;4.93;;;;;;;8.07;100.00;94549.25;5025990;28;20482;-62
2023/10/10 02:45:18;;;;;;;14.10;5.03;;;;;;;8.07;100.00;94549.25;5027564;28;20049;-62
2023/10/10 02:47:52;;;;;;;15.45;4.78;;;;;;;8.04;100.00;94547.31;5027051;28;20050;-62
2023/10/10 02:50:40;;;;;;;14.27;4.90;;;;;;;8.00;100.00;94555.47;5027667;28;20548;-62
2023/10/10 02:53:08;;;;;;;14.60;4.65;;;;;;;7.94;100.00;94546.09;5013377;28;20041;-62
2023/10/10 02:55:41;;;;;;;15.17;4.50;;;;;;;7.89;100.00;94546.47;5030872;28;20050;-62
2023/10/10 02:58:20;;;;;;;11.93;4.40;;;;;;;7.88;100.00;94548.38;5019671;28;20046;-62
2023/10/10 03:00:52;;;;;;;12.90;4.93;;;;;;;7.82;100.00;94549.16;5025528;28;20444;-62
2023/10/10 03:03:19;;;;;;;13.68;5.05;;;;;;;7.83;100.00;94550.69;5021504;28;20042;-62
2023/10/10 03:05:50;;;;;;;16.40;5.18;;;;;;;7.75;100.00;94552.63;5030952;28;20049;-63
2023/10/10 03:08:35;;;;;;;13.10;4.70;;;;;;;7.76;100.00;94546.75;5022681;28;20056;-62
2023/10/10 03:11:05;;;;;;;11.93;5.20;;;;;;;7.70;100.00;94547.50;5029539;28;20037;-62
2023/10/10 03:13:42;;;;;;;12.65;4.93;;;;;;;7.68;100.00;94544.38;5026322;28;20051;-63
2023/10/10 03:18:54;;;;;;;12.40;4.50;;;;;;;7.61;100.00;94542.41;5024584;28;20053;-63
2023/10/10 03:21:36;;;;;;;119.27;56.60;;;;;;;7.60;100.00;94544.31;5019163;28;20057;-63
2023/10/10 03:29:46;;;;;;;15.68;6.00;;;;;;;7.53;100.00;94541.56;5023420;28;20060;-65
2023/10/10 03:35:20;;;;;;;16.03;5.43;;;;;;;7.47;100.00;94539.59;5031030;28;20045;-64
2023/10/10 03:37:41;;;;;;;13.20;5.20;;;;;;;7.40;100.00;94538.38;5029182;28;21515;-64
2023/10/10 05:25:23;;;;;;;17.47;6.77;;;;;;;6.97;100.00;94518.94;5023255;28;20060;-64
2023/10/10 05:27:51;;;;;;;15.55;6.43;;;;;;;6.92;100.00;94527.47;5023019;28;20049;-64
2023/10/10 05:30:23;;;;;;;16.58;6.30;;;;;;;6.92;100.00;94530.19;5026148;28;20413;-64
2023/10/10 05:33:01;;;;;;;15.00;6.28;;;;;;;6.94;100.00;94530.63;5023223;28;20647;-64
2023/10/10 05:35:29;;;;;;;15.05;6.13;;;;;;;6.97;100.00;94526.34;5014516;28;20617;-64
2023/10/10 05:37:56;;;;;;;16.23;5.97;;;;;;;6.99;100.00;94518.56;5022719;28;20054;-64
2023/10/10 05:40:26;;;;;;;14.70;6.57;;;;;;;7.02;100.00;94525.97;5027686;28;20046;-64
2023/10/10 05:42:57;;;;;;;15.45;6.45;;;;;;;7.08;100.00;94527.19;5024200;28;20038;-64
2023/10/10 05:45:24;;;;;;;20.08;6.55;;;;;;;7.13;100.00;94521.41;5027762;28;20045;-64
2023/10/10 05:47:51;;;;;;;16.42;6.32;;;;;;;7.14;100.00;94520.25;5025502;28;20140;-64
2023/10/10 05:50:19;;;;;;;15.73;6.40;;;;;;;7.09;100.00;94526.03;5027775;28;20045;-63
2023/10/10 05:52:45;;;;;;;14.93;7.07;;;;;;;7.04;100.00;94522.88;5026652;28;20068;-64
2023/10/10 05:55:12;;;;;;;18.25;7.28;;;;;;;7.18;100.00;94526.50;5027545;28;20045;-64
2023/10/10 05:57:41;;;;;;;16.92;7.13;;;;;;;7.23;100.00;94530.06;5025712;28;20046;-64
2023/10/10 06:00:10;;;;;;;19.75;7.00;;;;;;;7.36;100.00;94525.84;5017497;28;20213;-64
2023/10/10 06:02:38;;;;;;;14.33;6.53;;;;;;;7.52;100.00;94526.31;5026443;28;20045;-64
2023/10/10 06:05:05;;;;;;;20.15;7.18;;;;;;;7.68;100.00;94530.72;5017466;28;20045;-63
2023/10/10 06:07:33;;;;;;;19.00;6.82;;;;;;;7.88;100.00;94525.75;5025567;28;20046;-64
2023/10/10 06:09:59;;;;;;;17.65;6.72;;;;;;;7.97;100.00;94523.47;5018044;28;20068;-64
2023/10/10 06:12:26;;;;;;;15.90;6.93;;;;;;;8.11;100.00;94525.44;5026855;28;20045;-64
2023/10/10 06:14:54;;;;;;;20.87;6.93;;;;;;;8.12;100.00;94524.28;5019635;28;20060;-64
2023/10/10 06:17:24;;;;;;;15.00;6.97;;;;;;;8.22;100.00;94517.31;5027044;28;20048;-63
2023/10/10 06:19:51;;;;;;;16.40;7.55;;;;;;;8.30;100.00;94521.63;5020881;28;20433;-63
2023/10/10 06:22:19;;;;;;;18.90;7.97;;;;;;;8.47;100.00;94515.47;5027055;28;20052;-63
2023/10/10 06:24:46;;;;;;;20.38;7.30;;;;;;;8.70;100.00;94514.34;5021787;28;20071;-63
2023/10/10 06:27:13;;;;;;;17.43;7.23;;;;;;;8.98;100.00;94510.84;5024682;28;20049;-65
2023/10/10 06:29:40;;;;;;;21.17;8.20;;;;;;;9.06;100.00;94508.88;5017587;28;20133;-63
2023/10/10 06:32:10;;;;;;;17.95;6.85;;;;;;;9.31;100.00;94511.59;5031315;28;20041;-63
2023/10/10 06:34:38;;;;;;;17.23;7.47;;;;;;;9.58;100.00;94511.97;5030757;28;20374;-63
2023/10/10 06:37:07;;;;;;;19.77;6.80;;;;;;;9.60;100.00;94509.63;5030993;28;20064;-63
2023/10/10 06:39:35;;;;;;;18.10;7.40;;;;;;;9.69;100.00;94514.69;5018768;28;20037;-63
2023/10/10 06:42:03;;;;;;;18.58;7.45;;;;;;;10.16;100.00;94518.03;5030892;28;20125;-62
2023/10/10 06:44:35;;;;;;;15.52;7.75;;;;;;;10.36;100.00;94521.94;5018536;28;20041;-63
2023/10/10 06:47:10;;;;;;;21.20;7.72;;;;;;;10.65;100.00;94518.25;5029874;28;20060;-61
2023/10/10 06:49:43;;;;;;;21.83;7.47;;;;;;;10.84;100.00;94523.22;5025610;28;20452;-63
2023/10/10 06:52:18;;;;;;;20.30;7.80;;;;;;;11.03;100.00;94512.88;5030478;28;20045;-62
2023/10/10 06:54:53;;;;;;;21.48;8.05;;;;;;;10.49;100.00;94513.25;5031224;28;20052;-63
2023/10/10 06:57:41;;;;;;;15.98;7.82;;;;;;;10.91;100.00;94516.91;5030430;28;20044;-63
2023/10/10 07:02:48;;;;;;;24.08;7.93;;;;;;;11.44;100.00;94521.19;5030339;28;20041;-63
2023/10/10 07:05:19;;;;;;;16.10;7.10;;;;;;;12.01;100.00;94510.84;5030201;28;20050;-63
2023/10/10 07:07:52;;;;;;;14.98;6.22;;;;;;;12.37;100.00;94522.19;5031280;28;20111;-63
2023/10/10 07:10:37;;;;;;;19.27;6.80;;;;;;;12.75;100.00;94517.38;5029882;28;20577;-63
2023/10/10 07:13:10;;;;;;;14.68;6.22;;;;;;;13.13;100.00;94519.97;5030449;28;20176;-63
2023/10/10 07:15:39;;;;;;;16.98;6.60;;;;;;;13.75;100.00;94517.03;5030927;28;20445;-63
2023/10/10 07:18:22;;;;;;;13.77;5.90;;;;;;;13.48;100.00;94506.84;5030762;28;20223;-64
2023/10/10 07:21:04;;;;;;;13.77;6.40;;;;;;;14.26;100.00;94516.88;5030920;28;20052;-65
2023/10/10 07:23:38;;;;;;;14.70;6.30;;;;;;;14.29;100.00;94516.03;5029563;28;20551;-65
2023/10/10 07:26:41;;;;;;;15.75;6.30;;;;;;;14.94;100.00;94510.72;5030197;28;20045;-65
2023/10/10 07:29:25;;;;;;;18.88;7.15;;;;;;;14.46;100.00;94511.34;5030243;28;20064;-65
2023/10/10 07:31:45;;;;;;;14.73;6.17;;;;;;;15.95;100.00;94509.06;5029455;28;20201;-65
2023/10/10 07:34:15;;;;;;;13.57;5.93;;;;;;;15.43;100.00;94518.25;5030218;28;20047;-63
2023/10/10 07:36:50;;;;;;;15.10;6.22;;;;;;;14.36;100.00;94513.88;5030310;28;20528;-64
2023/10/10 07:39:32;;;;;;;13.20;6.40;;;;;;;14.14;100.00;94524.56;5029965;28;20401;-63
2023/10/10 07:41:59;;;;;;;14.68;5.95;;;;;;;14.76;100.00;94519.38;5018697;28;20059;-64
2023/10/10 07:44:25;;;;;;;16.03;6.13;;;;;;;15.19;100.00;94523.16;5029572;28;20362;-63
2023/10/10 07:47:19;;;;;;;15.73;6.10;;;;;;;16.10;100.00;94514.25;5030575;28;20041;-64
2023/10/10 07:49:50;;;;;;;18.63;6.50;;;;;;;16.42;100.00;94521.66;5029486;28;20093;-63
2023/10/10 07:52:20;;;;;;;15.57;5.97;;;;;;;17.30;100.00;94519.44;5029586;28;20049;-63
2023/10/10 07:54:51;;;;;;;12.10;6.05;;;;;;;16.73;100.00;94521.19;5030278;28;20050;-63
2023/10/10 07:57:55;;;;;;;16.07;6.40;;;;;;;16.80;100.00;94520.19;5028007;28;20051;-63
2023/10/10 08:00:17;;;;;;;13.13;5.80;;;;;;;17.62;100.00;94525.97;5029548;28;20049;-63
2023/10/10 08:02:49;;;;;;;14.70;5.90;;;;;;;18.36;100.00;94515.56;5030041;28;20033;-63
2023/10/10 08:05:19;;;;;;;14.95;5.80;;;;;;;19.61;91.54;94512.06;5029637;28;20053;-63
2023/10/10 08:07:47;;;;;;;14.80;6.10;;;;;;;20.70;85.54;94516.19;5029648;28;20045;-63
2023/10/10 08:10:29;;;;;;;13.07;5.77;;;;;;;21.02;79.71;94515.97;5029170;28;20048;-63
2023/10/10 08:12:56;;;;;;;14.50;5.97;;;;;;;21.51;76.12;94523.25;5029887;28;20119;-63
2023/10/10 08:15:26;;;;;;;14.95;6.20;;;;;;;21.06;79.22;94522.16;5029043;28;20045;-63
2023/10/10 08:17:54;;;;;;;13.75;5.80;;;;;;;21.18;80.41;94523.22;5029918;28;20048;-63
2023/10/10 08:21:06;;;;;;;15.20;5.63;;;;;;;23.14;70.62;94523.03;5028687;28;20470;-63
2023/10/10 08:23:24;;;;;;;13.07;5.70;;;;;;;24.57;61.39;94510.50;5027470;28;20041;-64
2023/10/10 08:25:52;;;;;;;12.75;5.55;;;;;;;24.58;59.05;94512.81;5012536;28;20456;-63
2023/10/10 08:28:22;;;;;;;17.10;5.50;;;;;;;24.46;59.98;94517.50;5026626;28;20042;-63
2023/10/10 08:30:55;;;;;;;17.50;6.40;;;;;;;25.49;55.10;94515.25;5029496;28;20037;-64
2023/10/10 08:33:22;;;;;;;14.32;5.88;;;;;;;26.77;49.91;94512.88;5028872;28;20053;-64
2023/10/10 08:35:48;;;;;;;15.17;6.50;;;;;;;27.09;49.13;94518.31;5028187;28;20041;-64
2023/10/10 08:38:20;;;;;;;17.20;5.82;;;;;;;27.94;47.08;94507.06;5028794;28;20041;-64
2023/10/10 08:40:57;;;;;;;13.63;5.80;;;;;;;27.29;48.18;94509.66;5029338;28;20486;-64
2023/10/10 08:43:28;;;;;;;18.00;5.85;;;;;;;28.54;45.89;94501.75;5028510;28;20420;-64
2023/10/10 08:45:56;;;;;;;17.38;6.05;;;;;;;29.60;43.08;94510.06;5029297;28;20061;-64
2023/10/10 08:48:26;;;;;;;19.07;5.80;;;;;;;29.24;41.89;94501.63;5028517;28;20174;-64
2023/10/10 08:50:55;;;;;;;14.65;6.05;;;;;;;28.68;43.07;94505.53;5026922;28;20057;-64
2023/10/10 08:53:26;;;;;;;18.70;5.90;;;;;;;27.43;45.03;94510.66;5028047;28;20056;-64
2023/10/10 08:55:56;;;;;;;19.13;6.20;;;;;;;26.71;48.75;94517.72;5028909;28;20059;-64
2023/10/10 08:58:23;;;;;;;11.73;5.90;;;;;;;27.82;46.45;94509.84;5028622;28;20068;-64
2023/10/10 09:00:50;;;;;;;16.03;6.03;;;;;;;29.77;43.12;94515.63;5028719;28;20037;-65
2023/10/10 09:03:17;;;;;;;14.23;5.68;;;;;;;31.50;39.33;94507.59;5028726;28;20052;-64
2023/10/10 09:05:44;;;;;;;13.68;6.10;;;;;;;30.54;39.35;94506.06;5028913;28;20068;-64
2023/10/10 09:08:17;;;;;;;17.92;6.07;;;;;;;32.16;38.06;94512.69;5028505;28;20056;-64
2023/10/10 09:10:46;;;;;;;10.65;5.50;;;;;;;30.96;38.29;94506.56;5028598;28;20056;-64
2023/10/10 09:13:13;;;;;;;16.40;6.63;;;;;;;30.46;39.58;94503.06;5028097;28;20106;-64
2023/10/10 09:15:56;;;;;;;13.27;5.82;;;;;;;29.41;41.19;94509.97;5028780;28;20065;-64
2023/10/10 09:18:25;;;;;;;14.20;6.10;;;;;;;29.37;41.57;94501.00;5028353;28;20037;-64
2023/10/10 09:21:08;;;;;;;13.00;6.53;;;;;;;29.61;42.25;94505.97;5015621;28;20041;-64
2023/10/10 09:23:42;;;;;;;15.60;5.93;;;;;;;29.78;41.26;94509.44;5027087;28;20610;-64
2023/10/10 09:28:58;;;;;;;18.00;6.45;;;;;;;27.40;47.20;94506.03;5028268;28;20123;-64
2023/10/10 09:31:33;;;;;;;14.90;6.40;;;;;;;27.21;49.07;94516.28;5027696;28;20126;-64
2023/10/10 09:34:06;;;;;;;12.80;5.82;;;;;;;28.48;46.77;94504.56;5028526;28;20041;-64
2023/10/10 09:36:50;;;;;;;17.00;6.07;;;;;;;28.70;45.73;94500.13;5027329;28;20852;-64
2023/10/10 09:39:36;;;;;;;15.00;5.90;;;;;;;29.55;45.02;94491.84;5027933;28;20490;-63
2023/10/10 09:42:44;;;;;;;20.48;6.13;;;;;;;29.24;44.54;94485.44;5027847;28;20052;-63
2023/10/10 09:48:06;;;;;;;17.02;5.80;;;;;;;28.84;44.38;94495.44;4996751;28;20037;-63
2023/10/10 09:50:51;;;;;;;15.40;5.65;;;;;;;27.38;48.09;94508.59;5028824;28;20049;-63
2023/10/10 09:53:21;;;;;;;18.90;5.50;;;;;;;29.38;44.70;94497.66;5027748;28;20152;-63
2023/10/10 09:55:53;;;;;;;14.23;5.30;;;;;;;30.40;42.41;94503.13;5026673;28;20098;-64
2023/10/10 09:58:25;;;;;;;21.73;5.32;;;;;;;31.15;40.36;94500.88;5027637;28;20041;-63
2023/10/10 10:00:53;;;;;;;16.60;4.65;;;;;;;30.41;39.55;94495.41;5026808;28;20046;-65
2023/10/10 10:09:08;;;;;;;15.85;4.75;;;;;;;31.84;37.12;94502.13;5031239;28;20606;-64
2023/10/10 10:11:51;;;;;;;12.55;4.07;;;;;;;32.43;35.84;94508.53;5031544;28;20711;-65
2023/10/10 10:14:28;;;;;;;14.65;4.60;;;;;;;32.94;35.01;94498.19;5031678;28;20053;-64
2023/10/10 10:17:12;;;;;;;18.30;4.78;;;;;;;32.34;36.28;94499.69;5032282;28;20114;-64
2023/10/10 10:19:45;;;;;;;15.77;4.43;;;;;;;32.91;34.92;94496.47;5031705;28;20079;-64
2023/10/10 10:22:21;;;;;;;16.08;4.60;;;;;;;32.60;34.63;94498.94;5031382;28;20103;-64
2023/10/10 10:24:48;;;;;;;14.63;3.95;;;;;;;31.53;36.17;94495.94;5032237;28;20033;-64
2023/10/10 10:27:31;;;;;;;12.38;4.43;;;;;;;31.51;37.43;94500.63;5031307;28;20053;-65
2023/10/10 10:32:47;;;;;;;14.30;4.60;;;;;;;30.99;38.39;94497.00;5031189;28;20449;-64
2023/10/10 10:35:36;;;;;;;13.07;4.40;;;;;;;32.10;36.76;94495.75;5031386;28;20391;-64
2023/10/10 10:38:06;;;;;;;13.85;4.38;;;;;;;33.82;34.17;94493.06;5031549;28;20081;-64
2023/10/10 10:43:14;;;;;;;15.25;4.15;;;;;;;32.81;34.90;94484.78;5031141;28;20049;-64
2023/10/10 10:46:07;;;;;;;15.73;4.10;;;;;;;32.06;33.67;94488.88;5031429;28;20053;-64
2023/10/10 10:48:35;;;;;;;15.30;4.22;;;;;;;31.83;34.13;94484.34;5019067;28;20742;-64
2023/10/10 10:51:22;;;;;;;13.15;3.70;;;;;;;32.22;33.34;94487.78;5030773;28;20049;-63
2023/10/10 10:53:58;;;;;;;15.95;3.70;;;;;;;31.32;34.33;94489.28;5031568;28;20045;-64
2023/10/10 10:59:20;;;;;;;15.10;3.80;;;;;;;33.05;31.83;94475.22;5031062;28;20072;-64
2023/10/10 11:01:55;;;;;;;17.20;4.03;;;;;;;33.01;31.10;94472.69;5030089;28;20491;-64
2023/10/10 11:07:07;;;;;;;13.95;3.65;;;;;;;31.01;34.10;94468.91;5031100;28;20115;-65
2023/10/10 11:09:43;;;;;;;18.73;4.10;;;;;;;27.66;39.73;94477.56;5028981;28;20183;-65
2023/10/10 11:12:12;;;;;;;15.53;3.80;;;;;;;27.70;39.06;94475.25;5029046;28;20056;-64
2023/10/10 11:14:45;;;;;;;18.73;4.28;;;;;;;29.36;36.98;94471.97;5030082;28;20054;-64
2023/10/10 11:17:19;;;;;;;20.75;3.97;;;;;;;25.36;43.22;94478.34;5030460;28;20049;-64
2023/10/10 11:19:48;;;;;;;15.70;3.90;;;;;;;27.50;40.54;94473.50;5031287;28;20045;-64
2023/10/10 11:22:38;;;;;;;16.85;4.03;;;;;;;26.80;41.64;94466.81;5029844;28;20060;-64
2023/10/10 11:25:04;;;;;;;14.07;3.90;;;;;;;28.04;40.17;94463.16;5030711;28;20037;-64
2023/10/10 11:27:43;;;;;;;13.75;4.07;;;;;;;26.21;44.05;94468.38;5030240;28;20671;-64
2023/10/10 11:30:11;;;;;;;15.93;4.20;;;;;;;25.49;45.23;94463.88;5030228;28;20049;-64
2023/10/10 11:32:46;;;;;;;15.25;3.95;;;;;;;26.28;44.37;94461.53;5031341;28;20037;-65
2023/10/10 11:35:25;;;;;;;18.88;4.30;;;;;;;24.37;49.97;94455.97;5030226;28;20451;-65
2023/10/10 11:37:59;;;;;;;17.23;4.17;;;;;;;26.43;44.62;94448.00;5030632;28;20057;-65
2023/10/10 11:42:59;;;;;;;17.00;4.30;;;;;;;25.18;46.99;94442.94;5029873;28;20269;-65
2023/10/10 11:45:26;;;;;;;15.38;3.95;;;;;;;27.11;44.01;94442.50;5030126;28;20131;-65
2023/10/10 11:48:05;;;;;;;14.90;3.95;;;;;;;27.90;42.97;94439.63;5029145;28;20053;-65
2023/10/10 11:50:45;;;;;;;8.00;2.90;;;;;;;27.62;33.27;94446.06;5029662;28;20593;-65
2023/10/10 11:53:14;;;;;;;8.50;2.97;;;;;;;27.67;32.49;94441.72;5029432;28;20067;-64
2023/10/10 11:55:41;;;;;;;12.32;3.30;;;;;;;27.68;33.45;94437.59;5030612;28;20041;-65
2023/10/10 11:58:08;;;;;;;12.18;3.30;;;;;;;27.56;35.10;94436.09;5028591;28;20056;-65
2023/10/10 12:00:44;;;;;;;14.45;3.97;;;;;;;26.74;40.00;94435.03;5030427;28;20337;-65
2023/10/10 12:03:41;;;;;;;13.93;3.77;;;;;;;25.94;43.21;94436.06;5029539;28;20045;-65
2023/10/10 12:06:17;;;;;;;14.82;4.03;;;;;;;26.78;42.79;94429.91;5029389;28;20057;-64
2023/10/10 12:08:47;;;;;;;12.82;4.35;;;;;;;26.10;44.61;94428.97;5030014;28;20044;-65
2023/10/10 12:11:21;;;;;;;16.17;4.15;;;;;;;24.96;46.88;94420.31;5029642;28;20045;-64
2023/10/10 12:13:50;;;;;;;15.18;4.30;;;;;;;24.21;49.57;94422.88;5028367;28;20094;-65
2023/10/10 12:16:23;;;;;;;16.10;3.80;;;;;;;24.12;51.26;94418.19;5029616;28;20051;-64
2023/10/10 12:18:52;;;;;;;17.35;4.43;;;;;;;23.24;52.85;94422.84;5029884;28;20122;-65
2023/10/10 12:21:21;;;;;;;18.35;4.25;;;;;;;23.47;53.95;94413.53;5029088;28;20048;-65
2023/10/10 12:23:54;;;;;;;13.52;4.00;;;;;;;23.66;54.78;94404.84;5029477;28;20056;-65
2023/10/10 12:26:26;;;;;;;15.95;3.78;;;;;;;23.91;53.65;94401.38;5027984;28;20119;-64
2023/10/10 12:28:53;;;;;;;14.13;3.27;;;;;;;24.42;50.33;94401.16;5029449;28;20387;-64
2023/10/10 12:31:21;;;;;;;13.55;4.40;;;;;;;25.13;45.42;94398.72;5028555;28;20469;-64
2023/10/10 12:33:49;;;;;;;14.57;4.10;;;;;;;25.99;43.81;94398.75;5029548;28;20041;-64
2023/10/10 12:36:17;;;;;;;15.77;4.20;;;;;;;24.30;46.07;94389.06;5028915;28;20072;-65
2023/10/10 12:38:44;;;;;;;10.23;3.70;;;;;;;24.72;46.58;94390.50;5029630;28;20095;-64
2023/10/10 12:41:12;;;;;;;10.70;3.80;;;;;;;23.98;47.33;94391.75;5028789;28;20052;-64
2023/10/10 12:43:39;;;;;;;12.25;3.38;;;;;;;24.87;44.12;94384.75;5029745;28;20045;-64
2023/10/10 12:46:07;;;;;;;16.33;3.90;;;;;;;24.95;44.03;94387.88;5028538;28;20091;-64
2023/10/10 12:48:39;;;;;;;13.27;3.53;;;;;;;25.76;43.79;94385.84;5029146;28;20044;-64
2023/10/10 12:51:09;;;;;;;12.02;3.85;;;;;;;26.00;42.66;94379.84;5028626;28;20126;-64
2023/10/10 12:53:40;;;;;;;12.70;3.47;;;;;;;26.23;41.06;94381.44;5029238;28;20214;-64
2023/10/10 12:56:11;;;;;;;13.07;3.85;;;;;;;25.16;42.02;94371.69;5028606;28;20042;-64
2023/10/10 12:58:51;;;;;;;12.48;3.38;;;;;;;25.83;40.43;94371.31;5029201;28;20037;-64
2023/10/10 13:01:23;;;;;;;12.00;3.42;;;;;;;25.82;39.67;94375.41;5027278;28;20056;-64
2023/10/10 13:03:51;;;;;;;12.88;3.75;;;;;;;25.64;40.52;94370.97;5029102;28;20060;-64
2023/10/10 13:06:22;;;;;;;11.13;3.60;;;;;;;26.11;39.89;94371.44;5028400;28;20575;-64
2023/10/10 13:11:20;;;;;;;9.13;3.60;;;;;;;26.38;38.67;94374.81;5028676;28;20059;-64
2023/10/10 13:13:51;;;;;;;9.57;3.95;;;;;;;26.39;38.50;94379.16;5028876;28;20044;-65
2023/10/10 13:16:22;;;;;;;10.93;3.50;;;;;;;26.01;38.62;94372.94;5028156;28;20045;-64
2023/10/10 13:18:50;;;;;;;13.47;3.37;;;;;;;26.74;39.22;94370.28;5028304;28;20378;-64
2023/10/10 13:21:20;;;;;;;12.48;3.58;;;;;;;26.73;39.83;94365.16;5028086;28;20095;-64
2023/10/10 13:23:51;;;;;;;14.70;3.95;;;;;;;26.00;48.15;94368.59;5028340;28;20029;-64
2023/10/10 13:26:21;;;;;;;13.85;3.67;;;;;;;25.79;50.38;94370.78;5028247;28;20041;-64
2023/10/10 13:28:49;;;;;;;15.05;3.65;;;;;;;25.43;52.79;94373.16;5028481;28;20556;-64
2023/10/10 13:31:18;;;;;;;10.37;3.80;;;;;;;25.77;52.25;94373.31;5028168;28;20445;-64
2023/10/10 13:33:45;;;;;;;15.00;4.20;;;;;;;25.41;53.71;94370.84;5015807;28;20049;-64
2023/10/10 13:36:17;;;;;;;13.93;4.28;;;;;;;24.89;56.06;94370.97;5007068;28;20052;-65
2023/10/10 13:38:50;;;;;;;15.80;3.63;;;;;;;25.31;55.17;94370.28;5027838;28;20041;-65
2023/10/10 13:41:27;;;;;;;15.93;4.40;;;;;;;24.66;58.58;94370.03;5027890;28;20041;-64
2023/10/10 13:43:59;;;;;;;14.23;4.13;;;;;;;24.32;63.05;94376.06;5028647;28;20410;-65
2023/10/10 13:46:32;;;;;;;16.48;4.30;;;;;;;23.76;69.92;94369.81;5027839;28;20052;-65
2023/10/10 13:48:59;;;;;;;16.38;4.18;;;;;;;23.96;74.88;94379.50;5028466;28;20065;-65
2023/10/10 13:51:29;;;;;;;16.45;4.25;;;;;;;24.22;73.63;94368.31;5027804;28;20033;-65
2023/10/10 13:53:56;;;;;;;15.70;4.15;;;;;;;24.14;75.64;94367.97;5028086;28;20144;-66
2023/10/10 13:56:30;;;;;;;16.73;4.00;;;;;;;24.58;73.00;94374.56;5027900;28;20042;-65
2023/10/10 13:59:00;;;;;;;14.45;4.55;;;;;;;24.76;70.03;94368.59;5027719;28;20041;-65
2023/10/10 14:01:36;;;;;;;15.40;4.57;;;;;;;24.95;69.68;94371.03;5027539;28;20416;-64
2023/10/10 14:04:23;;;;;;;14.20;4.65;;;;;;;24.03;72.16;94368.66;5027636;28;20045;-64
2023/10/10 14:06:50;;;;;;;18.05;4.60;;;;;;;24.02;73.90;94363.53;5028176;28;20405;-64
2023/10/10 14:09:31;;;;;;;15.20;4.60;;;;;;;23.83;78.11;94363.06;5027258;28;20057;-65
2023/10/10 14:12:02;;;;;;;16.25;4.60;;;;;;;24.16;76.94;94357.03;5027849;28;20498;-64
2023/10/10 14:14:30;;;;;;;13.70;4.22;;;;;;;24.38;74.00;94353.69;5027316;28;21486;-64
2023/10/10 14:16:57;;;;;;;13.65;4.30;;;;;;;24.42;73.96;94361.88;5028257;28;20058;-64
2023/10/10 14:19:24;;;;;;;15.77;4.50;;;;;;;24.10;76.56;94359.03;5027785;28;20037;-65
2023/10/10 14:21:54;;;;;;;17.07;4.77;;;;;;;23.96;79.12;94365.50;5028010;28;20163;-64